Home > Products > Valid Products > TAF

000
FTUS41 KBTV 051758
TAFMSS
TAF
KMSS 051758Z 0518/0618 26008KT P6SM FEW040 SCT250
     FM052300 24004KT P6SM FEW250=



000
FTUS41 KBTV 051758
TAFBTV
TAF
KBTV 051758Z 0518/0618 VRB06KT P6SM SCT050 SCT250
     FM060000 00000KT P6SM FEW250
     FM061600 21006KT P6SM FEW250=



000
FTUS41 KBTV 051758
TAFSLK
TAF
KSLK 051758Z 0518/0618 30007KT P6SM SCT050 SCT250
     FM060000 00000KT P6SM FEW250
     FM060400 00000KT 1/2SM FG VV002
     FM061200 00000KT P6SM FEW250
     FM061600 21005KT P6SM FEW050 FEW250=



000
FTUS41 KBTV 051758
TAFBTV
TAF
KBTV 051758Z 0518/0618 VRB06KT P6SM SCT050 SCT250
     FM060000 00000KT P6SM FEW250
     FM061600 21006KT P6SM FEW250=



000
FTUS41 KBTV 051758
TAFMSS
TAF
KMSS 051758Z 0518/0618 26008KT P6SM FEW040 SCT250
     FM052300 24004KT P6SM FEW250=



000
FTUS41 KBTV 051758
TAFSLK
TAF
KSLK 051758Z 0518/0618 30007KT P6SM SCT050 SCT250
     FM060000 00000KT P6SM FEW250
     FM060400 00000KT 1/2SM FG VV002
     FM061200 00000KT P6SM FEW250
     FM061600 21005KT P6SM FEW050 FEW250=



000
FTUS41 KBTV 051758
TAFMPV
TAF
KMPV 051758Z 0518/0618 VRB06KT P6SM SCT060 SCT250
     FM060000 00000KT P6SM FEW250
     FM060700 00000KT 1/2SM FG VV001
     FM061200 00000KT P6SM FEW050 FEW250=



000
FTUS41 KBTV 051758
TAFMPV
TAF
KMPV 051758Z 0518/0618 VRB06KT P6SM SCT060 SCT250
     FM060000 00000KT P6SM FEW250
     FM060700 00000KT 1/2SM FG VV001
     FM061200 00000KT P6SM FEW050 FEW250=



000
FTUS41 KBTV 051120
TAFBTV
TAF
KBTV 051120Z 0512/0612 22005KT P6SM FEW050 SCT090
     FM051800 29007KT P6SM SCT050
     FM060000 VRB03KT P6SM SKC
     FM060900 VRB03KT 5SM BR SKC=



000
FTUS41 KBTV 051120
TAFSLK
TAF
KSLK 051120Z 0512/0612 25007KT P6SM SCT050
     FM060000 VRB03KT P6SM SKC
     FM060500 00000KT 3SM BR SKC
     FM060700 00000KT 1/2SM FG OVC002=



000
FTUS41 KBTV 051120
TAFMSS
TAF
KMSS 051120Z 0512/0612 25007KT P6SM SCT050
     FM060000 VRB03KT P6SM SKC=



000
FTUS41 KBTV 051120
TAFMPV
TAF
KMPV 051120Z 0512/0612 VRB03KT 3SM BR SCT001 BKN080
      TEMPO 0512/0513 1/2SM FG VV001
     FM051300 30007KT P6SM SCT050
     FM060000 VRB03KT P6SM SKC
     FM060500 00000KT 4SM BR SKC
     FM060800 00000KT 1/2SM FG VV001=



000
FTUS41 KBTV 051001 AAA
TAFMPV
TAF AMD
KMPV 051001Z 0510/0606 00000KT 1/2SM FG VV001
     FM051200 30007KT P6SM SCT050
     FM060000 VRB03KT P6SM SKC
     FM060500 00000KT 4SM BR SKC=



000
FTUS41 KBTV 050533
TAFBTV
TAF
KBTV 050533Z 0506/0606 18004KT P6SM FEW040 SCT080
     FM051200 24007KT P6SM SCT050
     FM051800 30007KT P6SM SCT050
     FM060000 VRB03KT P6SM SKC=



000
FTUS41 KBTV 050533
TAFMSS
TAF
KMSS 050533Z 0506/0606 23004KT P6SM SCT060
     FM051300 25009KT P6SM SCT060
     FM060000 VRB03KT P6SM SKC=



000
FTUS41 KBTV 050533
TAFSLK
TAF
KSLK 050533Z 0506/0606 00000KT 1/4SM FG VV003
      TEMPO 0508/0512 3SM BR BKN001
     FM051200 25007KT P6SM SCT050
     FM060000 VRB03KT P6SM SKC
     FM060500 00000KT 3SM BR SKC=



000
FTUS41 KBTV 050533
TAFMPV
TAF
KMPV 050533Z 0506/0606 VRB02KT 3SM BR SCT001 BKN080
      TEMPO 0506/0510 1/2SM FG VV001
     FM051200 30007KT P6SM SCT050
     FM060000 VRB03KT P6SM SKC
     FM060500 00000KT 4SM BR SKC=



000
FTUS41 KBTV 050357 AAB
TAFMPV
TAF AMD
KMPV 050357Z 0504/0524 VRB02KT P6SM SCT060
      TEMPO 0504/0508 3SM BR SCT001
     FM050800 00000KT 3SM BR SCT001 SCT060
      TEMPO 0508/0512 1SM BR BKN001
     FM051200 30007KT P6SM SCT060=



000
FTUS41 KBTV 050302 AAA
TAFSLK
TAF AMD
KSLK 050302Z 0503/0524 00000KT 3SM BR SCT001
      TEMPO 0503/0507 1SM BR BKN001
     FM050700 00000KT 1SM BR BKN001
     FM051100 25007KT P6SM SCT050=



000
FTUS41 KBTV 050116 AAA
TAFMPV
TAF AMD
KMPV 050116Z 0501/0524 19003KT 6SM -SHRA BR BKN080
      TEMPO 0501/0503 3SM -RA BR
     FM050300 VRB02KT P6SM SCT060
     FM050800 00000KT 3SM BR SCT001 SCT060
      TEMPO 0508/0512 1SM BR BKN001
     FM051200 30007KT P6SM SCT060=



000
FTUS41 KBTV 042324
TAFBTV
TAF
KBTV 042324Z 0500/0524 18004KT P6SM SCT070
     FM051200 24007KT P6SM SCT060=



000
FTUS41 KBTV 042324
TAFSLK
TAF
KSLK 042324Z 0500/0524 00000KT P6SM SCT050
      TEMPO 0502/0504 4SM BR FEW001
     FM050400 00000KT 3SM BR SCT001
      TEMPO 0504/0507 1SM BR BKN001
     FM050700 00000KT 1SM BR BKN001
     FM051100 25007KT P6SM SCT050=



000
FTUS41 KBTV 042324
TAFMPV
TAF
KMPV 042324Z 0500/0524 19003KT 3SM -SHRA BR BKN080
     FM050130 VRB02KT P6SM SCT060
     FM050800 00000KT 3SM BR SCT001 SCT060
      TEMPO 0508/0512 1SM BR BKN001
     FM051200 30007KT P6SM SCT060=



000
FTUS41 KBTV 042324
TAFMSS
TAF
KMSS 042324Z 0500/0524 23004KT P6SM SCT060
     FM051300 25009KT P6SM SCT060=



000
FTUS41 KBTV 042144 AAB
TAFBTV
TAF AMD
KBTV 042144Z 0422/0518 18007G17KT P6SM -SHRA VCTS BKN070CB OVC150
      TEMPO 0422/0423 27009KT 3SM -TSRA BR OVC050CB
     FM050200 17004KT P6SM SCT070
     FM050700 00000KT P6SM FEW070
     FM051400 21006KT P6SM FEW070=



000
FTUS41 KBTV 042144 AAB
TAFBTV
TAF AMD
KBTV 042144Z 0422/0518 18007G17KT P6SM -SHRA VCTS BKN070CB OVC150
      TEMPO 0422/0423 27009KT 3SM -TSRA BR OVC050CB
     FM050200 17004KT P6SM SCT070
     FM050700 00000KT P6SM FEW070
     FM051400 21006KT P6SM FEW070=



000
FTUS41 KBTV 042047 AAA
TAFSLK
TAF AMD
KSLK 042047Z 0421/0518 23006KT 6SM -SHRA BR VCTS OVC035CB
     FM042200 23004KT P6SM VCSH BKN035 BKN080
     FM050100 00000KT P6SM SCT060
     FM051500 25007KT P6SM SCT060=



000
FTUS41 KBTV 041736
TAFMPV
TAF
KMPV 041736Z 0418/0518 16005KT P6SM SCT070 OVC130
     FM050200 00000KT P6SM SCT070
     FM051700 29006KT P6SM FEW060=



000
FTUS41 KBTV 041736
TAFMSS
TAF
KMSS 041736Z 0418/0518 VRB03KT P6SM SCT090 SCT150
     FM050200 00000KT P6SM FEW090 FEW150
     FM051400 25007KT P6SM FEW070=



000
FTUS41 KBTV 041736
TAFSLK
TAF
KSLK 041736Z 0418/0518 23004KT P6SM VCSH BKN035 BKN080
      TEMPO 0418/0422 6SM -SHRA OVC035
     FM050100 00000KT P6SM SCT060
     FM051500 25007KT P6SM SCT060=



000
FTUS41 KBTV 041736
TAFBTV
TAF
KBTV 041736Z 0418/0518 18007G17KT P6SM BKN070 OVC150
      TEMPO 0420/0424 6SM -SHRA OVC050
     FM050200 17004KT P6SM SCT070
     FM050700 00000KT P6SM FEW070
     FM051400 21006KT P6SM FEW070=



000
FTUS41 KBTV 041736
TAFMPV
TAF
KMPV 041736Z 0418/0518 16005KT P6SM SCT070 OVC130
     FM050200 00000KT P6SM SCT070
     FM051700 29006KT P6SM FEW060=



000
FTUS41 KBTV 041736
TAFMSS
TAF
KMSS 041736Z 0418/0518 VRB03KT P6SM SCT090 SCT150
     FM050200 00000KT P6SM FEW090 FEW150
     FM051400 25007KT P6SM FEW070=



000
FTUS41 KBTV 041736
TAFSLK
TAF
KSLK 041736Z 0418/0518 23004KT P6SM VCSH BKN035 BKN080
      TEMPO 0418/0422 6SM -SHRA OVC035
     FM050100 00000KT P6SM SCT060
     FM051500 25007KT P6SM SCT060=



000
FTUS41 KBTV 041736
TAFBTV
TAF
KBTV 041736Z 0418/0518 18007G17KT P6SM BKN070 OVC150
      TEMPO 0420/0424 6SM -SHRA OVC050
     FM050200 17004KT P6SM SCT070
     FM050700 00000KT P6SM FEW070
     FM051400 21006KT P6SM FEW070=



000
FTUS41 KBTV 041125
TAFMPV
TAF
KMPV 041125Z 0412/0512 18005KT P6SM FEW050 SCT100 BKN200
     FM041800 18007KT P6SM BKN045 BKN080
     FM050000 VRB03KT P6SM BKN045 BKN100=



000
FTUS41 KBTV 041125
TAFBTV
TAF
KBTV 041125Z 0412/0512 19007KT P6SM FEW060 BKN090 BKN150
     FM041800 19007KT P6SM SCT050 BKN080
     FM050100 18004KT P6SM BKN050=



000
FTUS41 KBTV 041125
TAFSLK
TAF
KSLK 041125Z 0412/0512 21005KT P6SM SCT050 BKN080 BKN200
     FM041600 21006KT P6SM VCSH SCT040 BKN080
     FM041800 22005KT P6SM VCSH BKN040
     FM050000 VRB03KT P6SM BKN040=



000
FTUS41 KBTV 041125
TAFMSS
TAF
KMSS 041125Z 0412/0512 22006KT P6SM SCT050 BKN200
     FM050000 VRB02KT P6SM SCT050 BKN100=



000
FTUS41 KBTV 041125
TAFMSS
TAF
KMSS 041125Z 0412/0512 22006KT P6SM SCT050 BKN200
     FM050000 VRB02KT P6SM SCT050 BKN100=



000
FTUS41 KBTV 041125
TAFBTV
TAF
KBTV 041125Z 0412/0512 19007KT P6SM FEW060 BKN090 BKN150
     FM041800 19007KT P6SM SCT050 BKN080
     FM050100 18004KT P6SM BKN050=



000
FTUS41 KBTV 041125
TAFMPV
TAF
KMPV 041125Z 0412/0512 18005KT P6SM FEW050 SCT100 BKN200
     FM041800 18007KT P6SM BKN045 BKN080
     FM050000 VRB03KT P6SM BKN045 BKN100=



000
FTUS41 KBTV 041125
TAFSLK
TAF
KSLK 041125Z 0412/0512 21005KT P6SM SCT050 BKN080 BKN200
     FM041600 21006KT P6SM VCSH SCT040 BKN080
     FM041800 22005KT P6SM VCSH BKN040
     FM050000 VRB03KT P6SM BKN040=



000
FTUS41 KBTV 040526
TAFBTV
TAF
KBTV 040526Z 0406/0506 VRB03KT P6SM BKN250
     FM041300 19007KT P6SM FEW050 BKN150
     FM041800 19007KT P6SM SCT050 BKN080
     FM050100 18004KT P6SM BKN050=



000
FTUS41 KBTV 040526
TAFMSS
TAF
KMSS 040526Z 0406/0506 VRB02KT P6SM BKN250
     FM041300 22006KT P6SM SCT050 BKN200
     FM050000 VRB02KT P6SM SCT050 BKN100=



000
FTUS41 KBTV 040526
TAFMPV
TAF
KMPV 040526Z 0406/0506 00000KT P6SM BKN250
     FM040800 00000KT 3SM BR SCT001 BKN250
      TEMPO 0408/0411 1SM BR BKN001
     FM041200 18005KT P6SM SCT050 BKN200
     FM041800 18007KT P6SM BKN045 BKN080
     FM050000 VRB03KT P6SM BKN045 BKN100=



000
FTUS41 KBTV 040526
TAFSLK
TAF
KSLK 040526Z 0406/0506 00000KT 5SM BR BKN250
     FM040800 00000KT 3SM BR SCT001 BKN250
      TEMPO 0408/0411 1SM BR BKN001
     FM041200 21005KT P6SM SCT050 BKN200
     FM041500 21006KT P6SM VCSH SCT040 BKN100
     FM041800 22005KT P6SM VCSH BKN040
     FM050000 VRB03KT P6SM BKN040=



000
FTUS41 KBTV 032320
TAFBTV
TAF
KBTV 032320Z 0400/0424 VRB03KT P6SM SCT250
     FM041300 20007KT P6SM FEW050 BKN200=



000
FTUS41 KBTV 032320
TAFSLK
TAF
KSLK 032320Z 0400/0424 00000KT P6SM SCT250
     FM040800 00000KT 3SM BR SCT001 SCT250
      TEMPO 0408/0411 2SM BR BKN001
     FM041200 21006KT P6SM SCT040 BKN200=



000
FTUS41 KBTV 032320
TAFMPV
TAF
KMPV 032320Z 0400/0424 00000KT P6SM SCT250
     FM040900 00000KT 3SM BR SCT001 SCT250
      TEMPO 0409/0411 1SM BR BKN001
     FM041200 18007KT P6SM SCT050 BKN200=



000
FTUS41 KBTV 032320
TAFMSS
TAF
KMSS 032320Z 0400/0424 VRB02KT P6SM SCT250
     FM041300 22006KT P6SM SCT050 SCT200=



000
FTUS41 KBTV 031732
TAFSLK
TAF
KSLK 031732Z 0318/0418 27004KT P6SM SCT060
      TEMPO 0318/0322 BKN060
     FM040900 00000KT 2SM BR BKN200
     FM041100 00000KT P6SM BKN100=



000
FTUS41 KBTV 031732
TAFMPV
TAF
KMPV 031732Z 0318/0418 31007KT P6SM FEW250
     FM032300 00000KT P6SM FEW250
     FM040800 00000KT 1SM BR BKN200
     FM040900 00000KT 1/2SM FG BKN200
     FM041130 00000KT P6SM BKN250=



000
FTUS41 KBTV 031732
TAFMSS
TAF
KMSS 031732Z 0318/0418 26006KT P6SM SCT060
     FM040800 VRB03KT P6SM BKN250=



000
FTUS41 KBTV 031732
TAFBTV
TAF
KBTV 031732Z 0318/0418 VRB05KT P6SM FEW060
     FM040000 VRB03KT P6SM FEW060 SCT250
     FM041600 20006KT P6SM BKN200=



000
FTUS41 KBTV 031732
TAFMPV
TAF
KMPV 031732Z 0318/0418 31007KT P6SM FEW250
     FM032300 00000KT P6SM FEW250
     FM040800 00000KT 1SM BR BKN200
     FM040900 00000KT 1/2SM FG BKN200
     FM041130 00000KT P6SM BKN250=



000
FTUS41 KBTV 031732
TAFMSS
TAF
KMSS 031732Z 0318/0418 26006KT P6SM SCT060
     FM040800 VRB03KT P6SM BKN250=



000
FTUS41 KBTV 031732
TAFBTV
TAF
KBTV 031732Z 0318/0418 VRB05KT P6SM FEW060
     FM040000 VRB03KT P6SM FEW060 SCT250
     FM041600 20006KT P6SM BKN200=



000
FTUS41 KBTV 031732
TAFSLK
TAF
KSLK 031732Z 0318/0418 27004KT P6SM SCT060
      TEMPO 0318/0322 BKN060
     FM040900 00000KT 2SM BR BKN200
     FM041100 00000KT P6SM BKN100=



000
FTUS41 KBTV 031134
TAFMSS
TAF
KMSS 031134Z 0312/0412 25007KT P6SM SKC
     FM040000 VRB03KT P6SM BKN250=



000
FTUS41 KBTV 031134
TAFBTV
TAF
KBTV 031134Z 0312/0412 26007KT P6SM SKC
     FM040000 VRB03KT P6SM SKC
     FM040800 VRB03KT P6SM BKN250=



000
FTUS41 KBTV 031134
TAFSLK
TAF
KSLK 031134Z 0312/0412 VRB03KT P6SM SKC
     FM031400 25006KT P6SM SKC
     FM040000 VRB03KT P6SM SKC
     FM040700 VRB03KT 3SM BR BKN250=



000
FTUS41 KBTV 031134
TAFMPV
TAF
KMPV 031134Z 0312/0412 32005KT P6SM SKC
     FM040000 VRB03KT P6SM SKC
     FM040700 00000KT 3SM BR BKN250=



000
FTUS41 KBTV 031134
TAFMPV
TAF
KMPV 031134Z 0312/0412 32005KT P6SM SKC
     FM040000 VRB03KT P6SM SKC
     FM040700 00000KT 3SM BR BKN250=



000
FTUS41 KBTV 031134
TAFBTV
TAF
KBTV 031134Z 0312/0412 26007KT P6SM SKC
     FM040000 VRB03KT P6SM SKC
     FM040800 VRB03KT P6SM BKN250=



000
FTUS41 KBTV 031134
TAFMSS
TAF
KMSS 031134Z 0312/0412 25007KT P6SM SKC
     FM040000 VRB03KT P6SM BKN250=



000
FTUS41 KBTV 031134
TAFSLK
TAF
KSLK 031134Z 0312/0412 VRB03KT P6SM SKC
     FM031400 25006KT P6SM SKC
     FM040000 VRB03KT P6SM SKC
     FM040700 VRB03KT 3SM BR BKN250=



000
FTUS41 KBTV 030847 AAA
TAFBTV
TAF AMD
KBTV 030847Z 0309/0406 VRB03KT P6SM SKC
     FM031300 26007KT P6SM SKC
     FM040000 VRB03KT P6SM SKC=



000
FTUS41 KBTV 030847 AAA
TAFBTV
TAF AMD
KBTV 030847Z 0309/0406 VRB03KT P6SM SKC
     FM031300 26007KT P6SM SKC
     FM040000 VRB03KT P6SM SKC=



000
FTUS41 KBTV 030522
TAFMSS
TAF
KMSS 030522Z 0306/0406 VRB03KT P6SM SCT200
     FM030800 VRB03KT 4SM BR SCT002
     FM031100 25007KT P6SM SKC
     FM040000 VRB03KT P6SM BKN250=



000
FTUS41 KBTV 030522
TAFSLK
TAF
KSLK 030522Z 0306/0406 00000KT 4SM BR SCT002
     FM030700 00000KT 1SM BR BKN002
     FM031100 VRB03KT P6SM SKC
     FM031700 25006KT P6SM SKC
     FM040000 VRB03KT P6SM SKC=



000
FTUS41 KBTV 030522
TAFBTV
TAF
KBTV 030522Z 0306/0406 VRB03KT P6SM SKC
     FM030800 VRB03KT 4SM BR FEW003
     FM031100 26007KT P6SM SKC
     FM040000 VRB03KT P6SM SKC=



000
FTUS41 KBTV 030522
TAFMPV
TAF
KMPV 030522Z 0306/0406 00000KT P6SM FEW200
     FM030800 00000KT 1SM BR BKN002
     FM031100 32005KT P6SM SKC
     FM040000 VRB03KT P6SM SKC=



000
FTUS41 KBTV 030522
TAFMSS
TAF
KMSS 030522Z 0306/0406 VRB03KT P6SM SCT200
     FM030800 VRB03KT 4SM BR SCT002
     FM031100 25007KT P6SM SKC
     FM040000 VRB03KT P6SM BKN250=



000
FTUS41 KBTV 030522
TAFMPV
TAF
KMPV 030522Z 0306/0406 00000KT P6SM FEW200
     FM030800 00000KT 1SM BR BKN002
     FM031100 32005KT P6SM SKC
     FM040000 VRB03KT P6SM SKC=



000
FTUS41 KBTV 030522
TAFBTV
TAF
KBTV 030522Z 0306/0406 VRB03KT P6SM SKC
     FM030800 VRB03KT 4SM BR FEW003
     FM031100 26007KT P6SM SKC
     FM040000 VRB03KT P6SM SKC=



000
FTUS41 KBTV 030522
TAFSLK
TAF
KSLK 030522Z 0306/0406 00000KT 4SM BR SCT002
     FM030700 00000KT 1SM BR BKN002
     FM031100 VRB03KT P6SM SKC
     FM031700 25006KT P6SM SKC
     FM040000 VRB03KT P6SM SKC=



000
FTUS41 KBTV 022320
TAFMSS
TAF
KMSS 022320Z 0300/0324 VRB03KT P6SM FEW250
     FM030600 VRB03KT 4SM BR SCT002
     FM031100 25007KT P6SM SKC=



000
FTUS41 KBTV 022320
TAFSLK
TAF
KSLK 022320Z 0300/0324 00000KT P6SM FEW250
     FM030700 VRB03KT 1SM BR BKN002
     FM031100 VRB03KT P6SM SKC
     FM031700 25006KT P6SM SKC=



000
FTUS41 KBTV 022320
TAFMPV
TAF
KMPV 022320Z 0300/0324 00000KT P6SM FEW200
     FM030800 00000KT 1SM BR BKN002
     FM031100 32005KT P6SM SKC=



000
FTUS41 KBTV 022320
TAFBTV
TAF
KBTV 022320Z 0300/0324 VRB03KT P6SM SKC
     FM030800 VRB03KT 4SM BR FEW003
     FM031100 29007KT P6SM SKC=



    US Dept of Commerce
    National Oceanic and Atmospheric Administration
    National Weather Service
    1325 East West Highway
    Silver Spring, MD 20910
    Page Author: NWS Internet Services Team
Disclaimer
Information Quality
Credits
Glossary
Privacy Policy
Freedom of Information Act (FOIA)
About Us
Career Opportunities